createdAt,value
2018-02-06T00:01:16.037Z,88.56
2018-02-06T00:03:43.597Z,88.72
2018-02-06T00:06:11.202Z,88.70
2018-02-06T00:08:38.793Z,88.95
2018-02-06T00:11:06.544Z,89.39
2018-02-06T00:13:34.128Z,89.38
2018-02-06T00:16:01.680Z,89.92
2018-02-06T00:18:29.231Z,89.85
2018-02-06T00:20:56.820Z,89.69
2018-02-06T00:23:24.372Z,89.39
2018-02-06T00:25:51.945Z,89.28
2018-02-06T00:28:19.555Z,89.32
2018-02-06T00:30:47.121Z,89.62
2018-02-06T00:33:14.701Z,89.23
2018-02-06T00:35:42.310Z,89.46
2018-02-06T00:38:09.875Z,89.41
2018-02-06T00:40:37.432Z,88.62
2018-02-06T00:43:05.054Z,87.99
2018-02-06T00:45:32.626Z,88.09
2018-02-06T00:48:00.206Z,88.49
2018-02-06T00:50:27.813Z,88.46
2018-02-06T00:52:55.400Z,89.30
2018-02-06T00:55:23.044Z,88.56
2018-02-06T00:57:50.631Z,88.47
2018-02-06T01:00:18.190Z,88.46
2018-02-06T01:02:45.763Z,89.29
2018-02-06T01:05:13.367Z,89.37
2018-02-06T01:07:40.934Z,89.89
2018-02-06T01:10:08.516Z,90.18
2018-02-06T01:12:36.110Z,90.32
2018-02-06T01:15:03.688Z,90.70
2018-02-06T01:17:31.285Z,91.08
2018-02-06T01:19:58.894Z,91.32
2018-02-06T01:22:26.464Z,91.52
2018-02-06T01:24:54.041Z,92.01
2018-02-06T01:27:21.660Z,92.36
2018-02-06T01:29:49.205Z,93.12
2018-02-06T01:32:16.940Z,92.95
2018-02-06T01:34:44.625Z,93.42
2018-02-06T01:37:12.271Z,93.43
2018-02-06T01:39:39.854Z,93.88
2018-02-06T01:42:07.532Z,93.83
2018-02-06T01:44:35.094Z,94.03
2018-02-06T01:47:02.766Z,94.13
2018-02-06T01:49:30.372Z,94.59
2018-02-06T01:51:57.945Z,94.57
2018-02-06T01:54:25.504Z,94.84
2018-02-06T01:56:53.106Z,94.75
2018-02-06T01:59:20.671Z,95.33
2018-02-06T02:01:48.230Z,95.60
2018-02-06T02:04:15.822Z,95.82
2018-02-06T02:06:43.382Z,96.45
2018-02-06T02:09:11.070Z,96.06
2018-02-06T02:11:38.692Z,95.87
2018-02-06T02:14:06.277Z,96.16
2018-02-06T02:16:33.884Z,96.38
2018-02-06T02:19:01.531Z,96.43
2018-02-06T02:21:29.093Z,96.54
2018-02-06T02:23:56.817Z,96.65
2018-02-06T02:26:24.418Z,96.76
2018-02-06T02:28:52.000Z,96.69
2018-02-06T02:31:19.592Z,97.31
2018-02-06T02:33:47.233Z,97.17
2018-02-06T02:36:14.816Z,97.18
2018-02-06T02:38:42.393Z,97.04
2018-02-06T02:41:10.008Z,96.98
2018-02-06T04:39:14.589Z,93.86
2018-02-06T04:41:42.156Z,93.98
2018-02-06T04:44:09.748Z,94.01
2018-02-06T04:46:37.367Z,94.11
2018-02-06T04:49:05.313Z,94.57
2018-02-06T04:51:33.054Z,94.79
2018-02-06T04:54:00.654Z,94.42
2018-02-06T04:56:28.219Z,94.32
2018-02-06T04:58:55.771Z,94.40
2018-02-06T05:01:23.375Z,94.26
2018-02-06T05:03:50.935Z,93.52
2018-02-06T05:06:18.566Z,93.52
2018-02-06T05:08:46.180Z,94.00
2018-02-06T05:11:13.894Z,93.77
2018-02-06T05:13:41.454Z,93.62
2018-02-06T05:16:09.069Z,93.27
2018-02-06T05:18:36.623Z,93.28
2018-02-06T05:21:04.188Z,93.00
2018-02-06T05:23:31.795Z,93.20
2018-02-06T05:25:59.372Z,93.29
2018-02-06T05:28:26.956Z,93.37
2018-02-06T05:30:54.558Z,93.18
2018-02-06T05:33:22.235Z,92.50
2018-02-06T05:35:49.901Z,92.33
2018-02-06T05:38:17.570Z,92.73
2018-02-06T05:40:45.149Z,92.60
2018-02-06T05:43:12.722Z,92.30
2018-02-06T05:45:40.349Z,91.83
2018-02-06T05:48:07.923Z,91.48
2018-02-06T05:50:35.500Z,91.74
2018-02-06T05:53:03.118Z,91.86
2018-02-06T05:55:30.706Z,92.40
2018-02-06T05:57:58.452Z,92.29
2018-02-06T06:00:26.067Z,91.52
2018-02-06T06:02:53.656Z,91.25
2018-02-06T06:05:21.236Z,90.82
2018-02-06T06:07:48.837Z,89.35
2018-02-06T06:10:16.424Z,88.72
2018-02-06T06:12:44.017Z,87.12
2018-02-06T06:15:11.638Z,85.85
2018-02-06T06:17:39.203Z,86.09
2018-02-06T06:20:06.776Z,85.69
2018-02-06T06:22:34.377Z,85.40
2018-02-06T06:25:01.944Z,85.13
2018-02-06T06:27:29.524Z,84.83
2018-02-06T06:29:57.136Z,83.78
2018-02-06T06:32:24.906Z,82.12
2018-02-06T06:34:52.520Z,81.46
2018-02-06T06:37:20.132Z,80.24
2018-02-06T06:39:47.700Z,79.16
2018-02-06T06:42:15.271Z,79.79
2018-02-06T06:44:42.878Z,79.95
2018-02-06T06:47:10.438Z,79.01
2018-02-06T06:49:38.008Z,73.45
2018-02-06T06:52:05.853Z,69.81
2018-02-06T06:54:33.430Z,68.19
2018-02-06T06:57:01.165Z,68.38
2018-02-06T06:59:28.775Z,68.28
2018-02-06T07:01:56.387Z,66.48
2018-02-06T07:04:23.981Z,66.58
2018-02-06T07:06:51.581Z,64.57
2018-02-06T07:09:19.155Z,63.85
2018-02-06T07:11:46.728Z,61.08
2018-02-06T07:14:14.322Z,59.39
2018-02-06T07:16:41.895Z,57.80
2018-02-06T07:19:09.479Z,59.34
2018-02-06T07:21:37.103Z,59.54
2018-02-06T07:24:04.673Z,60.83
2018-02-06T07:26:32.270Z,61.18
2018-02-06T07:29:00.060Z,63.05
2018-02-06T07:31:27.657Z,63.82
2018-02-06T07:33:55.224Z,65.02
2018-02-06T07:36:23.771Z,65.06
2018-02-06T07:38:51.353Z,64.10
2018-02-06T07:41:18.980Z,63.70
2018-02-06T07:43:46.599Z,64.56
2018-02-06T07:46:14.186Z,64.26
2018-02-06T07:48:41.790Z,65.22
2018-02-06T07:51:09.422Z,64.79
2018-02-06T07:53:37.004Z,65.60
2018-02-06T07:56:04.591Z,66.82
2018-02-06T07:58:32.198Z,66.00
2018-02-06T08:00:59.762Z,62.26
2018-02-06T08:03:27.351Z,59.84
2018-02-06T08:05:55.014Z,57.21
2018-02-06T08:08:22.655Z,56.03
2018-02-06T08:10:50.270Z,54.47
2018-02-06T08:13:17.894Z,51.36
2018-02-06T08:15:45.494Z,49.22
2018-02-06T08:18:13.088Z,48.07
2018-02-06T08:20:40.714Z,47.79
2018-02-06T08:23:08.288Z,47.98
2018-02-06T08:25:35.941Z,47.38
2018-02-06T08:28:03.565Z,46.95
2018-02-06T08:30:31.133Z,43.84
2018-02-06T08:32:58.694Z,40.96
2018-02-06T08:35:26.299Z,40.18
2018-02-06T08:37:53.876Z,39.96
2018-02-06T08:40:21.470Z,39.49
2018-02-06T08:42:49.094Z,38.01
2018-02-06T08:45:16.667Z,37.54
2018-02-06T08:47:44.263Z,36.02
2018-02-06T08:50:11.878Z,36.81
2018-02-06T08:52:39.475Z,37.10
2018-02-06T08:55:07.089Z,35.76
2018-02-06T08:57:34.751Z,35.53
2018-02-06T09:00:02.335Z,35.73
2018-02-06T09:02:29.907Z,35.85
2018-02-06T09:04:57.539Z,36.65
2018-02-06T09:07:25.119Z,36.28
2018-02-06T09:09:52.690Z,35.70
2018-02-06T09:12:20.305Z,35.39
2018-02-06T09:14:47.887Z,34.46
2018-02-06T09:17:15.476Z,34.00
2018-02-06T09:19:43.177Z,32.44
2018-02-06T09:22:10.759Z,33.95
2018-02-06T09:24:38.346Z,33.59
2018-02-06T09:27:05.946Z,34.24
2018-02-06T09:29:33.513Z,33.73
2018-02-06T09:32:01.100Z,33.34
2018-02-06T09:34:28.730Z,32.89
2018-02-06T09:36:56.314Z,32.82
2018-02-06T09:39:24.788Z,32.62
2018-02-06T09:41:52.398Z,32.01
2018-02-06T09:44:19.978Z,32.41
2018-02-06T09:46:47.553Z,31.48
2018-02-06T09:49:15.229Z,30.98
2018-02-06T09:51:42.809Z,29.75
2018-02-06T09:54:10.388Z,28.33
2018-02-06T09:56:37.988Z,29.35
2018-02-06T09:59:05.567Z,29.82
2018-02-06T10:01:33.273Z,29.18
2018-02-06T10:04:00.930Z,29.24
2018-02-06T10:06:28.500Z,30.19
2018-02-06T10:08:56.074Z,28.38
2018-02-06T10:11:23.696Z,28.82
2018-02-06T10:13:51.374Z,29.39
2018-02-06T10:16:18.949Z,29.94
2018-02-06T10:18:46.545Z,28.29
2018-02-06T10:21:14.165Z,27.47
2018-02-06T10:23:41.730Z,26.63
2018-02-06T10:26:09.341Z,25.96
2018-02-06T10:28:36.916Z,26.67
2018-02-06T10:31:04.493Z,25.24
2018-02-06T10:33:32.098Z,23.59
2018-02-06T10:35:59.665Z,23.79
2018-02-06T10:38:27.227Z,24.47
2018-02-06T10:40:54.841Z,23.72
2018-02-06T10:43:22.401Z,24.47
2018-02-06T10:45:49.971Z,22.37
2018-02-06T10:48:17.623Z,21.74
2018-02-06T10:50:45.183Z,22.00
2018-02-06T10:53:12.910Z,22.71
2018-02-06T10:55:40.529Z,22.25
2018-02-06T10:58:08.164Z,23.55
2018-02-06T11:00:35.857Z,25.35
2018-02-06T11:03:03.451Z,23.28
2018-02-06T11:05:31.098Z,23.48
2018-02-06T11:07:58.661Z,22.12
2018-02-06T11:10:26.263Z,23.21
2018-02-06T11:12:53.892Z,23.90
2018-02-06T11:15:21.447Z,23.59
2018-02-06T11:17:49.042Z,24.15
2018-02-06T11:20:16.638Z,23.41
2018-02-06T11:22:44.192Z,22.38
2018-02-06T11:25:11.810Z,23.82
2018-02-06T11:27:39.379Z,24.67
2018-02-06T11:30:07.006Z,26.11
2018-02-06T11:32:34.653Z,25.37
2018-02-06T11:35:02.227Z,24.14
2018-02-06T11:37:29.788Z,23.53
2018-02-06T11:39:57.386Z,24.57
2018-02-06T11:42:25.031Z,25.16
2018-02-06T11:44:52.623Z,23.92
2018-02-06T11:47:20.239Z,22.85
2018-02-06T11:49:47.806Z,21.57
2018-02-06T11:52:15.384Z,22.18
2018-02-06T11:54:42.966Z,24.44
2018-02-06T11:57:10.533Z,26.00
2018-02-06T11:59:38.145Z,26.74
2018-02-06T12:02:05.746Z,26.57
2018-02-06T12:04:33.299Z,27.64
2018-02-06T12:07:00.864Z,28.63
2018-02-06T12:09:28.800Z,28.20
2018-02-06T12:11:56.359Z,28.49
2018-02-06T12:14:23.922Z,27.95
2018-02-06T12:16:51.534Z,28.67
2018-02-06T12:19:19.109Z,28.13
2018-02-06T12:21:46.681Z,27.04
2018-02-06T12:24:14.312Z,27.15
2018-02-06T12:26:41.919Z,28.35
2018-02-06T12:29:09.561Z,28.37
2018-02-06T12:31:37.257Z,29.16
2018-02-06T12:34:04.910Z,30.04
2018-02-06T12:36:32.479Z,31.09
2018-02-06T12:39:00.085Z,29.58
2018-02-06T12:41:27.770Z,30.27
2018-02-06T12:43:55.323Z,29.00
2018-02-06T12:46:22.911Z,27.87
2018-02-06T12:48:50.465Z,27.90
2018-02-06T12:51:18.032Z,27.96
2018-02-06T12:53:45.617Z,26.88
2018-02-06T12:56:13.207Z,25.55
2018-02-06T12:58:40.799Z,25.69
2018-02-06T13:01:08.380Z,25.96
2018-02-06T13:03:35.935Z,27.15
2018-02-06T13:06:03.507Z,27.21
2018-02-06T13:08:31.087Z,27.21
2018-02-06T13:10:59.508Z,27.09
2018-02-06T13:13:27.076Z,28.13
2018-02-06T13:15:54.679Z,27.53
2018-02-06T13:18:22.290Z,28.34
2018-02-06T13:20:49.836Z,30.00
2018-02-06T13:23:17.437Z,28.66
2018-02-06T13:25:45.278Z,28.62
2018-02-06T13:28:12.823Z,30.16
2018-02-06T13:30:40.429Z,29.06
2018-02-06T13:33:08.005Z,29.53
2018-02-06T13:35:35.564Z,28.15
2018-02-06T13:38:03.163Z,27.34
2018-02-06T13:40:30.731Z,26.44
2018-02-06T13:42:58.292Z,27.97
2018-02-06T13:45:25.905Z,28.73
2018-02-06T13:47:53.472Z,29.94
2018-02-06T13:50:21.046Z,30.36
2018-02-06T13:52:48.631Z,30.88
2018-02-06T13:55:16.242Z,31.25
2018-02-06T13:57:48.524Z,31.64
2018-02-06T14:00:16.146Z,31.90
2018-02-06T14:02:43.699Z,33.07
2018-02-06T14:05:11.270Z,34.59
2018-02-06T14:07:38.841Z,34.15
2018-02-06T14:10:06.390Z,35.24
2018-02-06T14:12:34.042Z,36.10
2018-02-06T14:15:01.644Z,37.40
2018-02-06T14:17:29.241Z,39.84
2018-02-06T14:19:56.875Z,40.87
2018-02-06T14:22:24.442Z,41.90
2018-02-06T14:24:51.993Z,41.99
2018-02-06T14:27:19.579Z,42.13
2018-02-06T14:29:47.223Z,42.38
2018-02-06T14:32:14.805Z,42.97
2018-02-06T14:34:42.519Z,43.33
2018-02-06T14:37:10.131Z,43.66
2018-02-06T14:39:37.717Z,43.45
2018-02-06T14:42:05.339Z,44.07
2018-02-06T14:44:32.911Z,44.04
2018-02-06T14:47:00.476Z,44.95
2018-02-06T14:49:28.095Z,44.24
2018-02-06T14:51:55.650Z,44.72
2018-02-06T14:54:23.244Z,45.12
2018-02-06T14:56:50.943Z,45.06
2018-02-06T14:59:18.496Z,45.16
2018-02-06T15:01:46.066Z,45.39
2018-02-06T15:04:13.759Z,45.68
2018-02-06T15:06:41.349Z,46.17
2018-02-06T15:09:08.920Z,46.26
2018-02-06T15:11:36.525Z,46.55
2018-02-06T15:14:04.129Z,46.82
2018-02-06T15:16:31.753Z,47.22
2018-02-06T15:18:59.350Z,47.48
2018-02-06T15:21:26.930Z,47.90
2018-02-06T15:23:54.521Z,48.17
2018-02-06T15:26:22.186Z,48.26
2018-02-06T15:28:49.892Z,48.57
2018-02-06T15:31:17.471Z,48.56
2018-02-06T15:33:45.081Z,50.14
2018-02-06T15:36:12.849Z,50.19
2018-02-06T15:38:40.421Z,51.14
2018-02-06T15:41:08.105Z,51.73
2018-02-06T15:43:35.687Z,51.06
2018-02-06T15:46:03.299Z,51.77
2018-02-06T15:48:30.901Z,53.30
2018-02-06T15:50:58.485Z,52.45
2018-02-06T15:53:26.068Z,53.32
2018-02-06T15:55:53.654Z,53.03
2018-02-06T15:58:21.206Z,53.37
2018-02-06T16:00:49.476Z,52.62
2018-02-06T16:03:17.072Z,52.85
2018-02-06T16:05:44.659Z,52.97
2018-02-06T16:08:12.249Z,53.01
2018-02-06T16:10:39.869Z,53.11
2018-02-06T16:13:07.428Z,52.64
2018-02-06T16:15:35.189Z,53.63
2018-02-06T16:18:02.929Z,53.67
2018-02-06T16:20:30.487Z,53.58
2018-02-06T16:22:58.141Z,55.67
2018-02-06T16:25:25.889Z,53.76
2018-02-06T16:27:53.461Z,54.59
2018-02-06T16:30:21.049Z,53.56
2018-02-06T16:32:48.655Z,53.83
2018-02-06T16:35:16.228Z,53.54
2018-02-06T16:37:43.810Z,53.66
2018-02-06T16:40:11.463Z,53.98
2018-02-06T16:42:39.026Z,53.82
2018-02-06T16:45:06.588Z,53.76
2018-02-06T16:47:34.200Z,53.98
2018-02-06T16:50:01.775Z,54.22
2018-02-06T16:52:29.345Z,54.53
2018-02-06T16:54:56.942Z,54.56
2018-02-06T16:57:24.510Z,55.00
2018-02-06T16:59:52.086Z,54.96
2018-02-06T17:02:31.262Z,55.24
2018-02-06T17:04:58.824Z,55.32
2018-02-06T17:07:26.389Z,55.42
2018-02-06T17:09:53.991Z,55.87
2018-02-06T17:12:21.707Z,55.96
2018-02-06T17:14:49.264Z,56.14
2018-02-06T17:17:16.853Z,56.06
2018-02-06T17:19:44.430Z,55.95
2018-02-06T17:22:12.029Z,55.72
2018-02-06T17:24:39.605Z,55.70
2018-02-06T17:27:07.170Z,55.74
2018-02-06T17:29:34.734Z,55.82
2018-02-06T17:32:02.376Z,55.45
2018-02-06T17:34:29.935Z,55.63
2018-02-06T17:36:57.545Z,55.44
2018-02-06T17:39:25.173Z,55.42
2018-02-06T17:41:52.736Z,55.60
2018-02-06T17:44:20.311Z,55.78
2018-02-06T17:46:47.929Z,56.28
2018-02-06T17:49:15.480Z,56.39
2018-02-06T17:51:43.075Z,56.33
2018-02-06T17:54:10.679Z,55.31
2018-02-06T17:56:38.234Z,55.39
2018-02-06T17:59:05.783Z,55.82
2018-02-06T18:01:33.392Z,56.40
2018-02-06T18:04:00.942Z,56.65
2018-02-06T18:06:28.589Z,55.97
2018-02-06T18:08:56.206Z,56.36
2018-02-06T18:11:23.751Z,55.91
2018-02-06T18:13:51.310Z,55.33
2018-02-06T18:16:18.907Z,55.47
2018-02-06T18:18:46.552Z,55.75
2018-02-06T18:21:14.124Z,56.63
2018-02-06T18:23:41.735Z,57.28
2018-02-06T18:26:09.285Z,56.58
2018-02-06T18:28:36.867Z,57.32
2018-02-06T18:31:04.464Z,56.50
2018-02-06T18:33:32.036Z,56.11
2018-02-06T18:35:59.611Z,56.90
2018-02-06T18:38:27.248Z,56.67
2018-02-06T18:40:54.922Z,56.87
2018-02-06T18:43:22.514Z,57.20
2018-02-06T18:45:50.140Z,57.00
2018-02-06T18:48:17.727Z,57.07
2018-02-06T18:50:45.290Z,58.45
2018-02-06T18:53:12.899Z,58.39
2018-02-06T18:55:40.480Z,58.71
2018-02-06T18:58:08.085Z,58.54
2018-02-06T19:00:35.690Z,58.63
2018-02-06T19:03:03.269Z,58.37
2018-02-06T19:05:30.906Z,57.79
2018-02-06T19:07:58.631Z,57.34
2018-02-06T19:10:26.229Z,56.70
2018-02-06T19:12:53.804Z,56.65
2018-02-06T19:15:21.435Z,56.12
2018-02-06T19:17:49.042Z,56.17
2018-02-06T19:20:16.673Z,55.69
2018-02-06T19:22:44.724Z,55.95
2018-02-06T19:25:12.391Z,55.78
2018-02-06T19:27:39.950Z,56.32
2018-02-06T19:30:07.582Z,56.34
2018-02-06T19:32:35.162Z,56.59
2018-02-06T19:35:02.757Z,56.38
2018-02-06T19:37:30.333Z,56.90
2018-02-06T19:39:57.962Z,57.00
2018-02-06T19:42:25.532Z,56.73
2018-02-06T19:44:53.166Z,56.62
2018-02-06T19:47:20.753Z,57.15
2018-02-06T19:49:48.375Z,56.97
2018-02-06T19:52:15.974Z,57.47
2018-02-06T19:54:43.559Z,57.17
2018-02-06T19:57:11.109Z,56.84
2018-02-06T19:59:38.694Z,56.69
2018-02-06T20:02:06.243Z,56.32
2018-02-06T20:04:33.793Z,56.15
2018-02-06T20:07:01.375Z,56.16
2018-02-06T20:09:28.947Z,56.14
2018-02-06T20:11:56.499Z,56.20
2018-02-06T20:14:24.077Z,56.24
2018-02-06T20:16:51.632Z,56.58
2018-02-06T20:19:19.196Z,56.49
2018-02-06T20:21:46.803Z,56.75
2018-02-06T20:24:14.374Z,56.91
2018-02-06T20:26:41.937Z,56.33
2018-02-06T20:29:09.552Z,56.41
2018-02-06T20:31:37.122Z,56.45
2018-02-06T20:34:04.696Z,56.31
2018-02-06T20:36:32.293Z,55.67
2018-02-06T20:38:59.858Z,55.29
2018-02-06T20:41:27.417Z,55.71
2018-02-06T20:43:55.123Z,54.78
2018-02-06T20:46:22.715Z,54.83
2018-02-06T20:48:50.280Z,54.24
2018-02-06T20:51:17.872Z,54.35
2018-02-06T20:53:45.450Z,54.02
2018-02-06T20:56:13.952Z,54.14
2018-02-06T20:58:41.556Z,54.45
2018-02-06T21:01:09.170Z,54.47
2018-02-06T21:03:36.774Z,54.62
2018-02-06T21:06:04.493Z,55.31
2018-02-06T21:08:32.685Z,55.36
2018-02-06T21:11:01.745Z,55.75
2018-02-06T21:13:30.973Z,55.71
2018-02-06T21:16:00.669Z,55.59
2018-02-06T21:18:29.499Z,55.79
2018-02-06T21:20:57.202Z,56.29
2018-02-06T21:23:24.765Z,56.50
2018-02-06T21:25:52.339Z,56.33
2018-02-06T21:28:19.943Z,56.48
2018-02-06T21:30:47.500Z,56.32
2018-02-06T21:33:15.056Z,56.70
2018-02-06T21:35:42.641Z,56.63
2018-02-06T21:38:10.212Z,56.39
2018-02-06T21:40:37.794Z,56.24
2018-02-06T21:43:05.441Z,55.97
2018-02-06T21:45:33.006Z,56.60
2018-02-06T21:48:00.580Z,56.94
2018-02-06T21:50:28.175Z,57.00
2018-02-06T21:52:55.739Z,56.78
2018-02-06T21:55:23.302Z,56.40
2018-02-06T21:57:50.905Z,56.43
2018-02-06T22:00:18.468Z,56.18
2018-02-06T22:02:46.045Z,55.28
2018-02-06T22:05:13.721Z,55.12
2018-02-06T22:07:41.282Z,55.11
2018-02-06T22:10:08.824Z,55.05
2018-02-06T22:12:36.421Z,54.62
2018-02-06T22:15:04.000Z,54.04
2018-02-06T22:17:31.550Z,53.98
2018-02-06T22:19:59.138Z,53.93
2018-02-06T22:22:26.687Z,53.58
2018-02-06T22:24:54.240Z,53.54
2018-02-06T22:27:21.854Z,53.97
2018-02-06T22:29:49.411Z,54.08
2018-02-06T22:32:16.986Z,53.92
2018-02-06T22:34:44.590Z,53.79
2018-02-06T22:37:12.226Z,53.95
2018-02-06T22:39:39.861Z,54.23
2018-02-06T22:42:07.678Z,54.42
2018-02-06T22:44:35.240Z,54.92
2018-02-06T22:47:02.800Z,54.94
2018-02-06T22:49:30.389Z,55.05
2018-02-06T22:51:57.933Z,55.41
2018-02-06T22:54:25.496Z,55.41
2018-02-06T22:56:53.083Z,55.63
2018-02-06T22:59:20.652Z,55.78
2018-02-06T23:01:48.210Z,55.83
2018-02-06T23:04:15.845Z,55.79
2018-02-06T23:06:43.430Z,56.04
2018-02-06T23:09:11.031Z,56.22
2018-02-06T23:11:38.626Z,56.14
2018-02-06T23:14:06.208Z,56.17
2018-02-06T23:16:33.765Z,56.30
2018-02-06T23:19:01.367Z,56.02
2018-02-06T23:21:28.934Z,56.31
2018-02-06T23:23:56.514Z,56.81
2018-02-06T23:26:24.123Z,56.95
2018-02-06T23:28:51.688Z,56.91
2018-02-06T23:31:19.255Z,56.99
2018-02-06T23:33:46.924Z,57.09
2018-02-06T23:36:14.486Z,57.42
2018-02-06T23:38:42.058Z,57.83
2018-02-06T23:41:09.664Z,58.28
2018-02-06T23:43:37.256Z,58.21
2018-02-06T23:46:04.809Z,58.47
2018-02-06T23:48:32.441Z,58.47
2018-02-06T23:51:00.015Z,59.04
2018-02-06T23:53:27.590Z,59.13
2018-02-06T23:55:55.205Z,59.37
2018-02-06T23:58:22.772Z,59.64
